WXM80 ListenWXM80 Stop

You find our weather info also at:

UK Metoffice

WeatherCloud

Weather Underground

Northeastern Weather Network

AWEKAS

Citizen Weather Observer Program (CWOP)

HAMweather, WeatherForYou, PWS Weather


Weather Underground History page Text

Daily Summary for February 20, 2018 Units:  Both    English   Metric
« Previous Day
Next Day »
Daily Weekly Monthly Yearly Custom
  High: Low: Average:
Temperature: 68.0 °F /  20 °C 48.9 °F /  9.4 °C 56.5 °F /  13.6 °C
Dew Point: 58.3 °F /  14.6 °C 48.1 °F /  8.9 °C 52.9 °F /  11.6 °C
Humidity: 98 % 69 % 89 %
Wind Speed: 8.4 mph /  13.5 km/h - 2.9 mph /  4.7 km/h
Wind Gust: 16.1 mph /  25.9 km/h - -
Wind:- - SW
Pressure: 30.08 in /  1018.5 hPa 30.01 in /  1016.1 hPa -
Precipitation: 0.00 in /  0 mm    
Historical Graphs
 
 
Tabular Data for February 20, 2018
Time Temperature Dew Point Pressure Wind Wind Speed Wind Gust Humidity Rainfall Rate (Hourly)
00:01 49.9 °F /  9.9 °C 49.1 °F /  9.5 °C 30.05 in /  1017.5 hPa SSW 2.6 mph /  4.2 km/h 4.6 mph /  7.4 km/h 97 % 0.00 in /  0 mm
00:06 49.9 °F /  9.9 °C 49.1 °F /  9.5 °C 30.05 in /  1017.5 hPa South 2.7 mph /  4.3 km/h 4.6 mph /  7.4 km/h 97 % 0.00 in /  0 mm
00:11 49.8 °F /  9.9 °C 49.0 °F /  9.4 °C 30.05 in /  1017.5 hPa South 2.6 mph /  4.2 km/h 5.0 mph /  8 km/h 97 % 0.00 in /  0 mm
00:16 49.7 °F /  9.8 °C 48.9 °F /  9.4 °C 30.05 in /  1017.5 hPa South 2.7 mph /  4.3 km/h 6.9 mph /  11.1 km/h 97 % 0.00 in /  0 mm
00:21 49.7 °F /  9.8 °C 48.9 °F /  9.4 °C 30.05 in /  1017.5 hPa SSW 3.4 mph /  5.5 km/h 5.8 mph /  9.3 km/h 97 % 0.00 in /  0 mm
00:26 49.7 °F /  9.8 °C 48.9 °F /  9.4 °C 30.04 in /  1017.2 hPa SSW 3.4 mph /  5.5 km/h 6.9 mph /  11.1 km/h 97 % 0.00 in /  0 mm
00:31 49.6 °F /  9.8 °C 48.8 °F /  9.3 °C 30.05 in /  1017.5 hPa SSW 4.3 mph /  6.9 km/h 6.9 mph /  11.1 km/h 97 % 0.00 in /  0 mm
00:36 49.6 °F /  9.8 °C 48.8 °F /  9.3 °C 30.05 in /  1017.5 hPa South 3.2 mph /  5.1 km/h 5.8 mph /  9.3 km/h 97 % 0.00 in /  0 mm
00:41 49.5 °F /  9.7 °C 48.7 °F /  9.3 °C 30.05 in /  1017.5 hPa South 4.0 mph /  6.4 km/h 6.9 mph /  11.1 km/h 97 % 0.00 in /  0 mm
00:46 49.4 °F /  9.7 °C 48.6 °F /  9.2 °C 30.04 in /  1017.2 hPa SSW 4.6 mph /  7.4 km/h 7.0 mph /  11.3 km/h 97 % 0.00 in /  0 mm
00:51 49.3 °F /  9.6 °C 48.5 °F /  9.2 °C 30.04 in /  1017.2 hPa SSW 4.5 mph /  7.2 km/h 7.0 mph /  11.3 km/h 97 % 0.00 in /  0 mm
00:56 49.2 °F /  9.6 °C 48.4 °F /  9.1 °C 30.04 in /  1017.2 hPa South 2.7 mph /  4.3 km/h 4.6 mph /  7.4 km/h 97 % 0.00 in /  0 mm
01:01 49.1 °F /  9.5 °C 48.3 °F /  9.1 °C 30.05 in /  1017.5 hPa SSW 4.8 mph /  7.7 km/h 5.8 mph /  9.3 km/h 97 % 0.00 in /  0 mm
01:06 49.0 °F /  9.4 °C 48.2 °F /  9 °C 30.05 in /  1017.5 hPa South 1.7 mph /  2.7 km/h 4.6 mph /  7.4 km/h 97 % 0.00 in /  0 mm
01:11 49.0 °F /  9.4 °C 48.2 °F /  9 °C 30.04 in /  1017.2 hPa SSW 0.7 mph /  1.1 km/h 4.6 mph /  7.4 km/h 97 % 0.00 in /  0 mm
01:16 48.9 °F /  9.4 °C 48.1 °F /  8.9 °C 30.04 in /  1017.2 hPa South 4.4 mph /  7.1 km/h 10.4 mph /  16.7 km/h 97 % 0.00 in /  0 mm
01:21 49.0 °F /  9.4 °C 48.2 °F /  9 °C 30.04 in /  1017.2 hPa SW 2.9 mph /  4.7 km/h 3.5 mph /  5.6 km/h 97 % 0.00 in /  0 mm
01:27 48.9 °F /  9.4 °C 48.1 °F /  8.9 °C 30.05 in /  1017.5 hPa SW 3.2 mph /  5.1 km/h 5.8 mph /  9.3 km/h 97 % 0.00 in /  0 mm
01:32 48.9 °F /  9.4 °C 48.1 °F /  8.9 °C 30.04 in /  1017.2 hPa SSW 4.5 mph /  7.2 km/h 6.9 mph /  11.1 km/h 97 % 0.00 in /  0 mm
01:37 49.0 °F /  9.4 °C 48.2 °F /  9 °C 30.04 in /  1017.2 hPa SSW 3.5 mph /  5.6 km/h 6.9 mph /  11.1 km/h 97 % 0.00 in /  0 mm
01:42 49.0 °F /  9.4 °C 48.2 °F /  9 °C 30.04 in /  1017.2 hPa SSW 3.6 mph /  5.8 km/h 5.0 mph /  8 km/h 97 % 0.00 in /  0 mm
01:47 49.0 °F /  9.4 °C 48.2 °F /  9 °C 30.04 in /  1017.2 hPa South 2.7 mph /  4.3 km/h 6.9 mph /  11.1 km/h 97 % 0.00 in /  0 mm
01:52 49.0 °F /  9.4 °C 48.2 °F /  9 °C 30.04 in /  1017.2 hPa SSW 2.2 mph /  3.5 km/h 4.6 mph /  7.4 km/h 97 % 0.00 in /  0 mm
01:57 49.0 °F /  9.4 °C 48.2 °F /  9 °C 30.04 in /  1017.2 hPa South 4.9 mph /  7.9 km/h 7.0 mph /  11.3 km/h 97 % 0.00 in /  0 mm
02:02 49.0 °F /  9.4 °C 48.2 °F /  9 °C 30.04 in /  1017.2 hPa SSW 2.2 mph /  3.5 km/h 3.5 mph /  5.6 km/h 97 % 0.00 in /  0 mm
02:07 49.0 °F /  9.4 °C 48.2 °F /  9 °C 30.04 in /  1017.2 hPa SSW 1.0 mph /  1.6 km/h 5.8 mph /  9.3 km/h 97 % 0.00 in /  0 mm
02:12 49.0 °F /  9.4 °C 48.2 °F /  9 °C 30.04 in /  1017.2 hPa South 3.4 mph /  5.5 km/h 6.9 mph /  11.1 km/h 97 % 0.00 in /  0 mm
02:17 49.0 °F /  9.4 °C 48.2 °F /  9 °C 30.04 in /  1017.2 hPa South 2.3 mph /  3.7 km/h 6.0 mph /  9.7 km/h 97 % 0.00 in /  0 mm
02:22 49.0 °F /  9.4 °C 48.2 °F /  9 °C 30.04 in /  1017.2 hPa South 4.9 mph /  7.9 km/h 6.9 mph /  11.1 km/h 97 % 0.00 in /  0 mm
02:27 49.0 °F /  9.4 °C 48.2 °F /  9 °C 30.04 in /  1017.2 hPa SW 2.8 mph /  4.5 km/h 5.8 mph /  9.3 km/h 97 % 0.00 in /  0 mm
02:32 49.0 °F /  9.4 °C 48.2 °F /  9 °C 30.04 in /  1017.2 hPa WSW 3.6 mph /  5.8 km/h 7.0 mph /  11.3 km/h 97 % 0.00 in /  0 mm
02:37 49.0 °F /  9.4 °C 48.2 °F /  9 °C 30.04 in /  1017.2 hPa SW 5.6 mph /  9 km/h 8.1 mph /  13 km/h 97 % 0.00 in /  0 mm
02:43 49.0 °F /  9.4 °C 48.2 °F /  9 °C 30.04 in /  1017.2 hPa SW 1.5 mph /  2.4 km/h 4.6 mph /  7.4 km/h 97 % 0.00 in /  0 mm
02:48 49.0 °F /  9.4 °C 48.2 °F /  9 °C 30.04 in /  1017.2 hPa SSW 2.3 mph /  3.7 km/h 4.6 mph /  7.4 km/h 97 % 0.00 in /  0 mm
02:53 49.0 °F /  9.4 °C 48.2 °F /  9 °C 30.04 in /  1017.2 hPa SW 2.4 mph /  3.9 km/h 3.5 mph /  5.6 km/h 97 % 0.00 in /  0 mm
02:58 49.0 °F /  9.4 °C 48.2 °F /  9 °C 30.04 in /  1017.2 hPa SW 3.5 mph /  5.6 km/h 6.9 mph /  11.1 km/h 97 % 0.00 in /  0 mm
03:03 49.1 °F /  9.5 °C 48.3 °F /  9.1 °C 30.04 in /  1017.2 hPa SSW 3.1 mph /  5 km/h 6.9 mph /  11.1 km/h 97 % 0.00 in /  0 mm
03:08 49.1 °F /  9.5 °C 48.3 °F /  9.1 °C 30.04 in /  1017.2 hPa SW 1.1 mph /  1.8 km/h 4.6 mph /  7.4 km/h 97 % 0.00 in /  0 mm
03:13 49.1 °F /  9.5 °C 48.3 °F /  9.1 °C 30.04 in /  1017.2 hPa South 2.2 mph /  3.5 km/h 5.0 mph /  8 km/h 97 % 0.00 in /  0 mm
03:18 49.1 °F /  9.5 °C 48.3 °F /  9.1 °C 30.04 in /  1017.2 hPa SW 2.4 mph /  3.9 km/h 5.8 mph /  9.3 km/h 97 % 0.00 in /  0 mm
03:23 49.1 °F /  9.5 °C 48.3 °F /  9.1 °C 30.03 in /  1016.8 hPa SSW 4.4 mph /  7.1 km/h 8.1 mph /  13 km/h 97 % 0.00 in /  0 mm
03:28 49.2 °F /  9.6 °C 48.4 °F /  9.1 °C 30.03 in /  1016.8 hPa SW 4.3 mph /  6.9 km/h 6.9 mph /  11.1 km/h 97 % 0.00 in /  0 mm
03:33 49.2 °F /  9.6 °C 48.4 °F /  9.1 °C 30.03 in /  1016.8 hPa SW 3.5 mph /  5.6 km/h 6.0 mph /  9.7 km/h 97 % 0.00 in /  0 mm
03:38 49.3 °F /  9.6 °C 48.8 °F /  9.3 °C 30.03 in /  1016.8 hPa SSW 4.1 mph /  6.6 km/h 6.9 mph /  11.1 km/h 98 % 0.00 in /  0 mm
03:43 49.3 °F /  9.6 °C 48.5 °F /  9.2 °C 30.03 in /  1016.8 hPa SW 4.0 mph /  6.4 km/h 5.8 mph /  9.3 km/h 97 % 0.00 in /  0 mm
03:48 49.4 °F /  9.7 °C 48.9 °F /  9.4 °C 30.03 in /  1016.8 hPa WSW 2.2 mph /  3.5 km/h 3.5 mph /  5.6 km/h 98 % 0.00 in /  0 mm
03:53 49.5 °F /  9.7 °C 48.7 °F /  9.3 °C 30.03 in /  1016.8 hPa SW 2.6 mph /  4.2 km/h 4.0 mph /  6.4 km/h 97 % 0.00 in /  0 mm
03:58 49.5 °F /  9.7 °C 48.7 °F /  9.3 °C 30.03 in /  1016.8 hPa SSW 3.0 mph /  4.8 km/h 5.8 mph /  9.3 km/h 97 % 0.00 in /  0 mm
04:03 49.6 °F /  9.8 °C 48.8 °F /  9.3 °C 30.04 in /  1017.2 hPa SW 2.9 mph /  4.7 km/h 4.6 mph /  7.4 km/h 97 % 0.00 in /  0 mm
04:09 49.6 °F /  9.8 °C 48.8 °F /  9.3 °C 30.04 in /  1017.2 hPa SW 2.5 mph /  4 km/h 4.6 mph /  7.4 km/h 97 % 0.00 in /  0 mm
04:14 49.7 °F /  9.8 °C 48.9 °F /  9.4 °C 30.04 in /  1017.2 hPa WSW 1.5 mph /  2.4 km/h 3.5 mph /  5.6 km/h 97 % 0.00 in /  0 mm
04:19 49.7 °F /  9.8 °C 49.2 °F /  9.6 °C 30.03 in /  1016.8 hPa SW 1.1 mph /  1.8 km/h 4.6 mph /  7.4 km/h 98 % 0.00 in /  0 mm
04:24 49.8 °F /  9.9 °C 49.3 °F /  9.6 °C 30.03 in /  1016.8 hPa SSW 3.7 mph /  6 km/h 6.0 mph /  9.7 km/h 98 % 0.00 in /  0 mm
04:29 49.8 °F /  9.9 °C 49.3 °F /  9.6 °C 30.04 in /  1017.2 hPa WSW 2.9 mph /  4.7 km/h 4.6 mph /  7.4 km/h 98 % 0.00 in /  0 mm
04:34 49.8 °F /  9.9 °C 49.3 °F /  9.6 °C 30.03 in /  1016.8 hPa SW 3.0 mph /  4.8 km/h 4.6 mph /  7.4 km/h 98 % 0.00 in /  0 mm
04:39 49.8 °F /  9.9 °C 49.3 °F /  9.6 °C 30.04 in /  1017.2 hPa WSW 4.3 mph /  6.9 km/h 5.8 mph /  9.3 km/h 98 % 0.00 in /  0 mm
04:44 49.9 °F /  9.9 °C 49.4 °F /  9.7 °C 30.04 in /  1017.2 hPa SW 3.6 mph /  5.8 km/h 5.8 mph /  9.3 km/h 98 % 0.00 in /  0 mm
04:49 49.9 °F /  9.9 °C 49.4 °F /  9.7 °C 30.04 in /  1017.2 hPa SW 2.6 mph /  4.2 km/h 4.0 mph /  6.4 km/h 98 % 0.00 in /  0 mm
04:54 49.9 °F /  9.9 °C 49.4 °F /  9.7 °C 30.04 in /  1017.2 hPa SW 3.0 mph /  4.8 km/h 4.0 mph /  6.4 km/h 98 % 0.00 in /  0 mm
04:59 50.0 °F /  10 °C 49.5 °F /  9.7 °C 30.04 in /  1017.2 hPa WSW 2.6 mph /  4.2 km/h 4.0 mph /  6.4 km/h 98 % 0.00 in /  0 mm
05:04 50.0 °F /  10 °C 49.5 °F /  9.7 °C 30.04 in /  1017.2 hPa SW 0.9 mph /  1.4 km/h 2.3 mph /  3.7 km/h 98 % 0.00 in /  0 mm
05:09 50.0 °F /  10 °C 49.5 °F /  9.7 °C 30.04 in /  1017.2 hPa SSW 3.4 mph /  5.5 km/h 4.6 mph /  7.4 km/h 98 % 0.00 in /  0 mm
05:14 50.1 °F /  10.1 °C 49.6 °F /  9.8 °C 30.04 in /  1017.2 hPa WSW 1.8 mph /  2.9 km/h 3.5 mph /  5.6 km/h 98 % 0.00 in /  0 mm
05:19 50.0 °F /  10 °C 49.5 °F /  9.7 °C 30.04 in /  1017.2 hPa SW 3.2 mph /  5.1 km/h 4.6 mph /  7.4 km/h 98 % 0.00 in /  0 mm
05:24 50.1 °F /  10.1 °C 49.6 °F /  9.8 °C 30.04 in /  1017.2 hPa SW 3.1 mph /  5 km/h 6.9 mph /  11.1 km/h 98 % 0.00 in /  0 mm
05:30 50.1 °F /  10.1 °C 49.6 °F /  9.8 °C 30.05 in /  1017.5 hPa SW 2.3 mph /  3.7 km/h 4.6 mph /  7.4 km/h 98 % 0.00 in /  0 mm
05:35 50.1 °F /  10.1 °C 49.6 °F /  9.8 °C 30.05 in /  1017.5 hPa SSW 0.3 mph /  0.5 km/h 6.9 mph /  11.1 km/h 98 % 0.00 in /  0 mm
05:40 50.1 °F /  10.1 °C 49.6 °F /  9.8 °C 30.04 in /  1017.2 hPa WSW 2.0 mph /  3.2 km/h 4.6 mph /  7.4 km/h 98 % 0.00 in /  0 mm
05:45 50.1 °F /  10.1 °C 49.6 °F /  9.8 °C 30.05 in /  1017.5 hPa WSW 1.0 mph /  1.6 km/h 3.5 mph /  5.6 km/h 98 % 0.00 in /  0 mm
05:50 50.2 °F /  10.1 °C 49.7 °F /  9.8 °C 30.05 in /  1017.5 hPa SW 0.1 mph /  0.2 km/h 3.5 mph /  5.6 km/h 98 % 0.00 in /  0 mm
05:55 50.1 °F /  10.1 °C 49.6 °F /  9.8 °C 30.05 in /  1017.5 hPa SW 2.1 mph /  3.4 km/h 4.0 mph /  6.4 km/h 98 % 0.00 in /  0 mm
06:00 50.2 °F /  10.1 °C 49.7 °F /  9.8 °C 30.05 in /  1017.5 hPa SW 0.6 mph /  1 km/h 3.5 mph /  5.6 km/h 98 % 0.00 in /  0 mm
06:05 50.1 °F /  10.1 °C 49.6 °F /  9.8 °C 30.05 in /  1017.5 hPa SW 1.9 mph /  3.1 km/h 3.5 mph /  5.6 km/h 98 % 0.00 in /  0 mm
06:10 50.1 °F /  10.1 °C 49.6 °F /  9.8 °C 30.05 in /  1017.5 hPa SW 1.5 mph /  2.4 km/h 2.3 mph /  3.7 km/h 98 % 0.00 in /  0 mm
06:15 50.1 °F /  10.1 °C 49.6 °F /  9.8 °C 30.05 in /  1017.5 hPa SW 0.3 mph /  0.5 km/h 2.3 mph /  3.7 km/h 98 % 0.00 in /  0 mm
06:20 50.1 °F /  10.1 °C 49.6 °F /  9.8 °C 30.05 in /  1017.5 hPa SW 0.5 mph /  0.8 km/h 3.5 mph /  5.6 km/h 98 % 0.00 in /  0 mm
06:25 50.1 °F /  10.1 °C 49.6 °F /  9.8 °C 30.06 in /  1017.8 hPa West 2.0 mph /  3.2 km/h 3.5 mph /  5.6 km/h 98 % 0.00 in /  0 mm
06:30 50.0 °F /  10 °C 49.5 °F /  9.7 °C 30.06 in /  1017.8 hPa SW 1.6 mph /  2.6 km/h 3.5 mph /  5.6 km/h 98 % 0.00 in /  0 mm
06:35 50.0 °F /  10 °C 49.5 °F /  9.7 °C 30.06 in /  1017.8 hPa SSW 2.9 mph /  4.7 km/h 3.5 mph /  5.6 km/h 98 % 0.00 in /  0 mm
06:40 50.0 °F /  10 °C 49.5 °F /  9.7 °C 30.06 in /  1017.8 hPa SW 3.6 mph /  5.8 km/h 4.6 mph /  7.4 km/h 98 % 0.00 in /  0 mm
06:45 50.1 °F /  10.1 °C 49.6 °F /  9.8 °C 30.06 in /  1017.8 hPa SW 2.2 mph /  3.5 km/h 5.8 mph /  9.3 km/h 98 % 0.00 in /  0 mm
06:50 50.2 °F /  10.1 °C 49.7 °F /  9.8 °C 30.06 in /  1017.8 hPa WSW 4.6 mph /  7.4 km/h 4.6 mph /  7.4 km/h 98 % 0.00 in /  0 mm
06:56 50.3 °F /  10.2 °C 49.8 °F /  9.9 °C 30.06 in /  1017.8 hPa SW 2.0 mph /  3.2 km/h 8.0 mph /  12.9 km/h 98 % 0.00 in /  0 mm
07:01 50.5 °F /  10.3 °C 50.0 °F /  10 °C 30.06 in /  1017.8 hPa SSW 5.8 mph /  9.3 km/h 9.2 mph /  14.8 km/h 98 % 0.00 in /  0 mm
07:06 50.7 °F /  10.4 °C 50.2 °F /  10.1 °C 30.06 in /  1017.8 hPa SW 6.8 mph /  10.9 km/h 10.4 mph /  16.7 km/h 98 % 0.00 in /  0 mm
07:11 51.0 °F /  10.6 °C 50.5 °F /  10.3 °C 30.06 in /  1017.8 hPa SW 5.8 mph /  9.3 km/h 11.5 mph /  18.5 km/h 98 % 0.00 in /  0 mm
07:16 51.2 °F /  10.7 °C 50.7 °F /  10.4 °C 30.06 in /  1017.8 hPa SW 5.0 mph /  8 km/h 9.2 mph /  14.8 km/h 98 % 0.00 in /  0 mm
07:21 51.4 °F /  10.8 °C 50.9 °F /  10.5 °C 30.06 in /  1017.8 hPa West 5.4 mph /  8.7 km/h 10.4 mph /  16.7 km/h 98 % 0.00 in /  0 mm
07:26 51.7 °F /  10.9 °C 51.2 °F /  10.7 °C 30.07 in /  1018.2 hPa WSW 5.1 mph /  8.2 km/h 9.0 mph /  14.5 km/h 98 % 0.00 in /  0 mm
07:31 51.9 °F /  11.1 °C 51.4 °F /  10.8 °C 30.07 in /  1018.2 hPa SW 4.6 mph /  7.4 km/h 10.4 mph /  16.7 km/h 98 % 0.00 in /  0 mm
07:36 52.1 °F /  11.2 °C 51.6 °F /  10.9 °C 30.07 in /  1018.2 hPa SW 5.2 mph /  8.4 km/h 10.4 mph /  16.7 km/h 98 % 0.00 in /  0 mm
07:41 52.2 °F /  11.2 °C 51.7 °F /  10.9 °C 30.07 in /  1018.2 hPa WSW 5.2 mph /  8.4 km/h 9.0 mph /  14.5 km/h 98 % 0.00 in /  0 mm
07:46 52.4 °F /  11.3 °C 51.9 °F /  11.1 °C 30.07 in /  1018.2 hPa SW 5.8 mph /  9.3 km/h 11.5 mph /  18.5 km/h 98 % 0.00 in /  0 mm
07:51 52.4 °F /  11.3 °C 51.9 °F /  11.1 °C 30.07 in /  1018.2 hPa SSW 5.3 mph /  8.5 km/h 7.0 mph /  11.3 km/h 98 % 0.00 in /  0 mm
07:56 52.5 °F /  11.4 °C 52.0 °F /  11.1 °C 30.07 in /  1018.2 hPa SSW 4.6 mph /  7.4 km/h 8.0 mph /  12.9 km/h 98 % 0.00 in /  0 mm
08:01 52.6 °F /  11.4 °C 52.1 °F /  11.2 °C 30.07 in /  1018.2 hPa WSW 3.3 mph /  5.3 km/h 9.0 mph /  14.5 km/h 98 % 0.00 in /  0 mm
08:07 52.7 °F /  11.5 °C 52.2 °F /  11.2 °C 30.07 in /  1018.2 hPa WSW 7.3 mph /  11.7 km/h 10.4 mph /  16.7 km/h 98 % 0.00 in /  0 mm
08:12 52.8 °F /  11.6 °C 52.3 °F /  11.3 °C 30.06 in /  1017.8 hPa WSW 4.0 mph /  6.4 km/h 6.9 mph /  11.1 km/h 98 % 0.00 in /  0 mm
08:17 53.0 °F /  11.7 °C 52.5 °F /  11.4 °C 30.07 in /  1018.2 hPa SSW 5.9 mph /  9.5 km/h 10.4 mph /  16.7 km/h 98 % 0.00 in /  0 mm
08:22 53.1 °F /  11.7 °C 52.6 °F /  11.4 °C 30.07 in /  1018.2 hPa SSW 4.7 mph /  7.6 km/h 11.5 mph /  18.5 km/h 98 % 0.00 in /  0 mm
08:27 53.2 °F /  11.8 °C 52.7 °F /  11.5 °C 30.07 in /  1018.2 hPa WSW 3.1 mph /  5 km/h 4.6 mph /  7.4 km/h 98 % 0.00 in /  0 mm
08:32 53.2 °F /  11.8 °C 52.7 °F /  11.5 °C 30.07 in /  1018.2 hPa WSW 6.5 mph /  10.5 km/h 11.5 mph /  18.5 km/h 98 % 0.00 in /  0 mm
08:37 53.3 °F /  11.8 °C 52.8 °F /  11.6 °C 30.07 in /  1018.2 hPa WSW 7.7 mph /  12.4 km/h 16.1 mph /  25.9 km/h 98 % 0.00 in /  0 mm
08:42 53.5 °F /  11.9 °C 52.9 °F /  11.6 °C 30.07 in /  1018.2 hPa SW 6.7 mph /  10.8 km/h 9.2 mph /  14.8 km/h 98 % 0.00 in /  0 mm
08:47 53.5 °F /  11.9 °C 52.9 °F /  11.6 °C 30.07 in /  1018.2 hPa West 6.1 mph /  9.8 km/h 10.0 mph /  16.1 km/h 98 % 0.00 in /  0 mm
08:52 53.5 °F /  11.9 °C 52.9 °F /  11.6 °C 30.07 in /  1018.2 hPa SSW 3.3 mph /  5.3 km/h 5.8 mph /  9.3 km/h 98 % 0.00 in /  0 mm
08:57 53.5 °F /  11.9 °C 52.9 °F /  11.6 °C 30.08 in /  1018.5 hPa SW 5.8 mph /  9.3 km/h 9.2 mph /  14.8 km/h 98 % 0.00 in /  0 mm
09:02 53.4 °F /  11.9 °C 52.8 °F /  11.6 °C 30.07 in /  1018.2 hPa SW 5.7 mph /  9.2 km/h 10.4 mph /  16.7 km/h 98 % 0.00 in /  0 mm
09:07 53.4 °F /  11.9 °C 52.8 °F /  11.6 °C 30.07 in /  1018.2 hPa WSW 4.8 mph /  7.7 km/h 10.4 mph /  16.7 km/h 98 % 0.00 in /  0 mm
09:12 53.5 °F /  11.9 °C 52.9 °F /  11.6 °C 30.07 in /  1018.2 hPa West 3.6 mph /  5.8 km/h 6.0 mph /  9.7 km/h 98 % 0.00 in /  0 mm
09:17 53.6 °F /  12 °C 53.0 °F /  11.7 °C 30.07 in /  1018.2 hPa WSW 7.0 mph /  11.3 km/h 11.0 mph /  17.7 km/h 98 % 0.00 in /  0 mm
09:22 53.7 °F /  12.1 °C 53.1 °F /  11.7 °C 30.07 in /  1018.2 hPa SSW 2.4 mph /  3.9 km/h 9.2 mph /  14.8 km/h 98 % 0.00 in /  0 mm
09:27 53.9 °F /  12.2 °C 53.3 °F /  11.8 °C 30.07 in /  1018.2 hPa West 4.8 mph /  7.7 km/h 7.0 mph /  11.3 km/h 98 % 0.00 in /  0 mm
09:32 54.0 °F /  12.2 °C 53.4 °F /  11.9 °C 30.07 in /  1018.2 hPa West 3.9 mph /  6.3 km/h 6.9 mph /  11.1 km/h 98 % 0.00 in /  0 mm
09:37 54.0 °F /  12.2 °C 53.4 °F /  11.9 °C 30.07 in /  1018.2 hPa SSW 5.6 mph /  9 km/h 6.9 mph /  11.1 km/h 98 % 0.00 in /  0 mm
09:42 54.1 °F /  12.3 °C 53.5 °F /  11.9 °C 30.07 in /  1018.2 hPa SSW 1.0 mph /  1.6 km/h 6.9 mph /  11.1 km/h 98 % 0.00 in /  0 mm
09:47 54.4 °F /  12.4 °C 53.8 °F /  12.1 °C 30.07 in /  1018.2 hPa SW 3.8 mph /  6.1 km/h 5.8 mph /  9.3 km/h 98 % 0.00 in /  0 mm
09:53 54.4 °F /  12.4 °C 53.8 °F /  12.1 °C 30.07 in /  1018.2 hPa WSW 4.0 mph /  6.4 km/h 6.9 mph /  11.1 km/h 98 % 0.00 in /  0 mm
09:58 54.5 °F /  12.5 °C 53.9 °F /  12.2 °C 30.07 in /  1018.2 hPa West 2.0 mph /  3.2 km/h 8.1 mph /  13 km/h 98 % 0.00 in /  0 mm
10:03 54.6 °F /  12.6 °C 54.0 °F /  12.2 °C 30.07 in /  1018.2 hPa WSW 1.7 mph /  2.7 km/h 6.0 mph /  9.7 km/h 98 % 0.00 in /  0 mm
10:08 54.8 °F /  12.7 °C 54.2 °F /  12.3 °C 30.07 in /  1018.2 hPa WSW 5.0 mph /  8 km/h 10.4 mph /  16.7 km/h 98 % 0.00 in /  0 mm
10:13 54.9 °F /  12.7 °C 54.3 °F /  12.4 °C 30.07 in /  1018.2 hPa SW 5.1 mph /  8.2 km/h 8.1 mph /  13 km/h 98 % 0.00 in /  0 mm
10:18 55.0 °F /  12.8 °C 54.4 °F /  12.4 °C 30.07 in /  1018.2 hPa West 0.8 mph /  1.3 km/h 2.3 mph /  3.7 km/h 98 % 0.00 in /  0 mm
10:23 55.1 °F /  12.8 °C 54.5 °F /  12.5 °C 30.07 in /  1018.2 hPa WSW 2.5 mph /  4 km/h 4.6 mph /  7.4 km/h 98 % 0.00 in /  0 mm
10:28 55.3 °F /  12.9 °C 54.7 °F /  12.6 °C 30.07 in /  1018.2 hPa WSW 3.7 mph /  6 km/h 6.9 mph /  11.1 km/h 98 % 0.00 in /  0 mm
10:33 55.4 °F /  13 °C 54.8 °F /  12.7 °C 30.07 in /  1018.2 hPa WSW 3.5 mph /  5.6 km/h 6.0 mph /  9.7 km/h 98 % 0.00 in /  0 mm
10:38 55.6 °F /  13.1 °C 54.8 °F /  12.7 °C 30.07 in /  1018.2 hPa South 3.8 mph /  6.1 km/h 5.8 mph /  9.3 km/h 97 % 0.00 in /  0 mm
10:43 55.9 °F /  13.3 °C 55.1 °F /  12.8 °C 30.07 in /  1018.2 hPa WSW 3.7 mph /  6 km/h 5.8 mph /  9.3 km/h 97 % 0.00 in /  0 mm
10:48 56.2 °F /  13.4 °C 55.4 °F /  13 °C 30.07 in /  1018.2 hPa SSW 3.4 mph /  5.5 km/h 5.8 mph /  9.3 km/h 97 % 0.00 in /  0 mm
10:53 56.5 °F /  13.6 °C 55.7 °F /  13.2 °C 30.07 in /  1018.2 hPa SW 1.9 mph /  3.1 km/h 8.1 mph /  13 km/h 97 % 0.00 in /  0 mm
10:58 56.9 °F /  13.8 °C 56.1 °F /  13.4 °C 30.07 in /  1018.2 hPa SW 5.2 mph /  8.4 km/h 8.1 mph /  13 km/h 97 % 0.00 in /  0 mm
11:03 57.3 °F /  14.1 °C 56.2 °F /  13.4 °C 30.07 in /  1018.2 hPa WSW 4.1 mph /  6.6 km/h 9.0 mph /  14.5 km/h 96 % 0.00 in /  0 mm
11:08 57.7 °F /  14.3 °C 56.3 °F /  13.5 °C 30.06 in /  1017.8 hPa WSW 3.6 mph /  5.8 km/h 6.9 mph /  11.1 km/h 95 % 0.00 in /  0 mm
11:13 58.1 °F /  14.5 °C 56.4 °F /  13.6 °C 30.06 in /  1017.8 hPa SW 5.0 mph /  8 km/h 11.5 mph /  18.5 km/h 94 % 0.00 in /  0 mm
11:18 58.4 °F /  14.7 °C 56.4 °F /  13.6 °C 30.06 in /  1017.8 hPa West 1.7 mph /  2.7 km/h 8.1 mph /  13 km/h 93 % 0.00 in /  0 mm
11:23 58.8 °F /  14.9 °C 56.5 °F /  13.6 °C 30.06 in /  1017.8 hPa WNW 2.5 mph /  4 km/h 5.8 mph /  9.3 km/h 92 % 0.00 in /  0 mm
11:29 59.2 °F /  15.1 °C 56.6 °F /  13.7 °C 30.06 in /  1017.8 hPa South 4.4 mph /  7.1 km/h 8.1 mph /  13 km/h 91 % 0.00 in /  0 mm
11:34 59.6 °F /  15.3 °C 56.7 °F /  13.7 °C 30.06 in /  1017.8 hPa SSW 3.1 mph /  5 km/h 9.2 mph /  14.8 km/h 90 % 0.00 in /  0 mm
11:39 60.2 °F /  15.7 °C 56.9 °F /  13.8 °C 30.06 in /  1017.8 hPa SW 2.2 mph /  3.5 km/h 9.2 mph /  14.8 km/h 89 % 0.00 in /  0 mm
11:44 60.7 °F /  15.9 °C 57.1 °F /  13.9 °C 30.06 in /  1017.8 hPa South 6.6 mph /  10.6 km/h 11.5 mph /  18.5 km/h 88 % 0.00 in /  0 mm
11:49 61.2 °F /  16.2 °C 57.0 °F /  13.9 °C 30.06 in /  1017.8 hPa SW 8.4 mph /  13.5 km/h 13.8 mph /  22.2 km/h 86 % 0.00 in /  0 mm
11:54 61.6 °F /  16.4 °C 57.4 °F /  14.1 °C 30.06 in /  1017.8 hPa WSW 4.5 mph /  7.2 km/h 8.1 mph /  13 km/h 86 % 0.00 in /  0 mm
12:00 61.9 °F /  16.6 °C 57.3 °F /  14.1 °C 30.05 in /  1017.5 hPa SW 6.0 mph /  9.7 km/h 8.1 mph /  13 km/h 85 % 0.00 in /  0 mm
12:05 62.1 °F /  16.7 °C 56.9 °F /  13.8 °C 30.05 in /  1017.5 hPa West 2.7 mph /  4.3 km/h 4.6 mph /  7.4 km/h 83 % 0.00 in /  0 mm
12:10 62.2 °F /  16.8 °C 56.3 °F /  13.5 °C 30.05 in /  1017.5 hPa West 5.5 mph /  8.9 km/h 6.0 mph /  9.7 km/h 81 % 0.00 in /  0 mm
12:15 62.3 °F /  16.8 °C 56.4 °F /  13.6 °C 30.04 in /  1017.2 hPa West 5.0 mph /  8 km/h 9.2 mph /  14.8 km/h 81 % 0.00 in /  0 mm
12:20 62.5 °F /  16.9 °C 56.9 °F /  13.8 °C 30.04 in /  1017.2 hPa SW 1.0 mph /  1.6 km/h 5.8 mph /  9.3 km/h 82 % 0.00 in /  0 mm
12:25 62.8 °F /  17.1 °C 56.5 °F /  13.6 °C 30.04 in /  1017.2 hPa WNW 5.0 mph /  8 km/h 6.9 mph /  11.1 km/h 80 % 0.00 in /  0 mm
12:30 63.0 °F /  17.2 °C 56.7 °F /  13.7 °C 30.03 in /  1016.8 hPa WSW 3.5 mph /  5.6 km/h 10.0 mph /  16.1 km/h 80 % 0.00 in /  0 mm
12:35 63.2 °F /  17.3 °C 56.6 °F /  13.7 °C 30.03 in /  1016.8 hPa WSW 3.4 mph /  5.5 km/h 5.8 mph /  9.3 km/h 79 % 0.00 in /  0 mm
12:40 63.4 °F /  17.4 °C 56.4 °F /  13.6 °C 30.03 in /  1016.8 hPa WSW 4.0 mph /  6.4 km/h 6.9 mph /  11.1 km/h 78 % 0.00 in /  0 mm
12:45 63.8 °F /  17.7 °C 56.8 °F /  13.8 °C 30.03 in /  1016.8 hPa WSW 2.4 mph /  3.9 km/h 10.4 mph /  16.7 km/h 78 % 0.00 in /  0 mm
12:50 63.9 °F /  17.7 °C 56.2 °F /  13.4 °C 30.03 in /  1016.8 hPa SW 7.1 mph /  11.4 km/h 10.4 mph /  16.7 km/h 76 % 0.00 in /  0 mm
12:55 64.1 °F /  17.8 °C 56.7 °F /  13.7 °C 30.03 in /  1016.8 hPa SW 2.7 mph /  4.3 km/h 4.6 mph /  7.4 km/h 77 % 0.00 in /  0 mm
13:00 64.3 °F /  17.9 °C 56.9 °F /  13.8 °C 30.02 in /  1016.5 hPa West 1.7 mph /  2.7 km/h 3.5 mph /  5.6 km/h 77 % 0.00 in /  0 mm
13:05 64.7 °F /  18.2 °C 57.3 °F /  14.1 °C 30.02 in /  1016.5 hPa SW 6.0 mph /  9.7 km/h 9.2 mph /  14.8 km/h 77 % 0.00 in /  0 mm
13:10 65.0 °F /  18.3 °C 57.2 °F /  14 °C 30.02 in /  1016.5 hPa WSW 1.5 mph /  2.4 km/h 3.5 mph /  5.6 km/h 76 % 0.00 in /  0 mm
13:15 65.4 °F /  18.6 °C 57.3 °F /  14.1 °C 30.02 in /  1016.5 hPa WSW 1.4 mph /  2.3 km/h 3.5 mph /  5.6 km/h 75 % 0.00 in /  0 mm
13:20 65.6 °F /  18.7 °C 57.5 °F /  14.2 °C 30.02 in /  1016.5 hPa WSW 3.5 mph /  5.6 km/h 3.5 mph /  5.6 km/h 75 % 0.00 in /  0 mm
13:25 65.9 °F /  18.8 °C 57.7 °F /  14.3 °C 30.02 in /  1016.5 hPa WSW 1.5 mph /  2.4 km/h 2.3 mph /  3.7 km/h 75 % 0.00 in /  0 mm
13:30 66.2 °F /  19 °C 57.7 °F /  14.3 °C 30.02 in /  1016.5 hPa WNW 2.5 mph /  4 km/h 5.8 mph /  9.3 km/h 74 % 0.00 in /  0 mm
13:36 66.4 °F /  19.1 °C 57.1 °F /  13.9 °C 30.02 in /  1016.5 hPa West 5.0 mph /  8 km/h 8.0 mph /  12.9 km/h 72 % 0.00 in /  0 mm
13:41 66.5 °F /  19.2 °C 57.2 °F /  14 °C 30.02 in /  1016.5 hPa West 2.0 mph /  3.2 km/h 7.0 mph /  11.3 km/h 72 % 0.00 in /  0 mm
13:46 66.3 °F /  19.1 °C 56.6 °F /  13.7 °C 30.02 in /  1016.5 hPa WSW 2.0 mph /  3.2 km/h 8.0 mph /  12.9 km/h 71 % 0.00 in /  0 mm
13:51 66.3 °F /  19.1 °C 57.0 °F /  13.9 °C 30.01 in /  1016.1 hPa WSW 2.0 mph /  3.2 km/h 5.0 mph /  8 km/h 72 % 0.00 in /  0 mm
13:56 66.5 °F /  19.2 °C 57.2 °F /  14 °C 30.01 in /  1016.1 hPa SSW 3.8 mph /  6.1 km/h 5.8 mph /  9.3 km/h 72 % 0.00 in /  0 mm
14:01 66.8 °F /  19.3 °C 57.9 °F /  14.4 °C 30.02 in /  1016.5 hPa WSW 3.1 mph /  5 km/h 9.2 mph /  14.8 km/h 73 % 0.00 in /  0 mm
14:06 67.2 °F /  19.6 °C 57.9 °F /  14.4 °C 30.02 in /  1016.5 hPa West 2.1 mph /  3.4 km/h 4.6 mph /  7.4 km/h 72 % 0.00 in /  0 mm
14:11 67.4 °F /  19.7 °C 57.3 °F /  14.1 °C 30.02 in /  1016.5 hPa West 4.2 mph /  6.8 km/h 5.8 mph /  9.3 km/h 70 % 0.00 in /  0 mm
14:16 67.5 °F /  19.7 °C 57.4 °F /  14.1 °C 30.02 in /  1016.5 hPa West 3.8 mph /  6.1 km/h 7.0 mph /  11.3 km/h 70 % 0.00 in /  0 mm
14:21 67.6 °F /  19.8 °C 57.1 °F /  13.9 °C 30.02 in /  1016.5 hPa WSW 4.0 mph /  6.4 km/h 8.0 mph /  12.9 km/h 69 % 0.00 in /  0 mm
14:26 67.6 °F /  19.8 °C 57.5 °F /  14.2 °C 30.02 in /  1016.5 hPa WNW 4.3 mph /  6.9 km/h 7.0 mph /  11.3 km/h 70 % 0.00 in /  0 mm
14:31 67.6 °F /  19.8 °C 57.5 °F /  14.2 °C 30.02 in /  1016.5 hPa SSW 1.9 mph /  3.1 km/h 6.9 mph /  11.1 km/h 70 % 0.00 in /  0 mm
14:36 67.7 °F /  19.8 °C 58.3 °F /  14.6 °C 30.02 in /  1016.5 hPa WSW 2.1 mph /  3.4 km/h 5.8 mph /  9.3 km/h 72 % 0.00 in /  0 mm
14:41 67.9 °F /  19.9 °C 58.1 °F /  14.5 °C 30.01 in /  1016.1 hPa South 2.7 mph /  4.3 km/h 5.8 mph /  9.3 km/h 71 % 0.00 in /  0 mm
14:46 68.0 °F /  20 °C 57.8 °F /  14.3 °C 30.01 in /  1016.1 hPa SSW 1.7 mph /  2.7 km/h 6.9 mph /  11.1 km/h 70 % 0.00 in /  0 mm
14:51 68.0 °F /  20 °C 57.8 °F /  14.3 °C 30.02 in /  1016.5 hPa WSW 5.2 mph /  8.4 km/h 9.2 mph /  14.8 km/h 70 % 0.00 in /  0 mm
14:56 68.0 °F /  20 °C 57.4 °F /  14.1 °C 30.01 in /  1016.1 hPa SW 3.6 mph /  5.8 km/h 8.1 mph /  13 km/h 69 % 0.00 in /  0 mm
15:01 68.0 °F /  20 °C 57.4 °F /  14.1 °C 30.02 in /  1016.5 hPa SW 2.9 mph /  4.7 km/h 6.9 mph /  11.1 km/h 69 % 0.00 in /  0 mm
15:06 67.9 °F /  19.9 °C 57.4 °F /  14.1 °C 30.01 in /  1016.1 hPa SSW 4.5 mph /  7.2 km/h 6.9 mph /  11.1 km/h 69 % 0.00 in /  0 mm
15:11 67.9 °F /  19.9 °C 57.8 °F /  14.3 °C 30.01 in /  1016.1 hPa SSW 2.7 mph /  4.3 km/h 6.0 mph /  9.7 km/h 70 % 0.00 in /  0 mm
15:16 67.8 °F /  19.9 °C 57.3 °F /  14.1 °C 30.01 in /  1016.1 hPa West 3.3 mph /  5.3 km/h 6.9 mph /  11.1 km/h 69 % 0.00 in /  0 mm
15:21 67.6 °F /  19.8 °C 57.5 °F /  14.2 °C 30.01 in /  1016.1 hPa SSW 3.8 mph /  6.1 km/h 4.6 mph /  7.4 km/h 70 % 0.00 in /  0 mm
15:26 67.6 °F /  19.8 °C 57.5 °F /  14.2 °C 30.01 in /  1016.1 hPa SW 2.8 mph /  4.5 km/h 5.8 mph /  9.3 km/h 70 % 0.00 in /  0 mm
15:31 67.6 °F /  19.8 °C 57.5 °F /  14.2 °C 30.01 in /  1016.1 hPa South 5.8 mph /  9.3 km/h 8.1 mph /  13 km/h 70 % 0.00 in /  0 mm
15:36 67.5 °F /  19.7 °C 57.4 °F /  14.1 °C 30.02 in /  1016.5 hPa WSW 4.9 mph /  7.9 km/h 8.1 mph /  13 km/h 70 % 0.00 in /  0 mm
15:42 67.5 °F /  19.7 °C 57.4 °F /  14.1 °C 30.02 in /  1016.5 hPa SW 5.3 mph /  8.5 km/h 8.1 mph /  13 km/h 70 % 0.00 in /  0 mm
15:47 67.5 °F /  19.7 °C 57.4 °F /  14.1 °C 30.01 in /  1016.1 hPa SSW 2.6 mph /  4.2 km/h 9.2 mph /  14.8 km/h 70 % 0.00 in /  0 mm
15:52 67.5 °F /  19.7 °C 57.8 °F /  14.3 °C 30.01 in /  1016.1 hPa SSW 2.7 mph /  4.3 km/h 5.8 mph /  9.3 km/h 71 % 0.00 in /  0 mm
15:57 67.5 °F /  19.7 °C 57.4 °F /  14.1 °C 30.01 in /  1016.1 hPa SW 5.8 mph /  9.3 km/h 11.5 mph /  18.5 km/h 70 % 0.00 in /  0 mm
16:02 67.4 °F /  19.7 °C 57.3 °F /  14.1 °C 30.01 in /  1016.1 hPa South 5.0 mph /  8 km/h 11.5 mph /  18.5 km/h 70 % 0.00 in /  0 mm
16:07 67.3 °F /  19.6 °C 57.2 °F /  14 °C 30.01 in /  1016.1 hPa SW 4.5 mph /  7.2 km/h 9.2 mph /  14.8 km/h 70 % 0.00 in /  0 mm
16:12 67.2 °F /  19.6 °C 57.1 °F /  13.9 °C 30.02 in /  1016.5 hPa SW 5.6 mph /  9 km/h 7.0 mph /  11.3 km/h 70 % 0.00 in /  0 mm
16:17 67.1 °F /  19.5 °C 57.4 °F /  14.1 °C 30.01 in /  1016.1 hPa SW 2.0 mph /  3.2 km/h 4.6 mph /  7.4 km/h 71 % 0.00 in /  0 mm
16:22 67.1 °F /  19.5 °C 57.4 °F /  14.1 °C 30.02 in /  1016.5 hPa SW 0.1 mph /  0.2 km/h 1.2 mph /  1.9 km/h 71 % 0.00 in /  0 mm
16:27 67.1 °F /  19.5 °C 57.8 °F /  14.3 °C 30.02 in /  1016.5 hPa SW 0.8 mph /  1.3 km/h 2.3 mph /  3.7 km/h 72 % 0.00 in /  0 mm
16:32 67.0 °F /  19.4 °C 57.7 °F /  14.3 °C 30.02 in /  1016.5 hPa South 1.7 mph /  2.7 km/h 4.0 mph /  6.4 km/h 72 % 0.00 in /  0 mm
16:37 66.9 °F /  19.4 °C 57.6 °F /  14.2 °C 30.02 in /  1016.5 hPa SW 1.3 mph /  2.1 km/h 3.5 mph /  5.6 km/h 72 % 0.00 in /  0 mm
16:42 66.9 °F /  19.4 °C 57.6 °F /  14.2 °C 30.03 in /  1016.8 hPa SW 2.5 mph /  4 km/h 4.6 mph /  7.4 km/h 72 % 0.00 in /  0 mm
16:47 66.8 °F /  19.3 °C 57.5 °F /  14.2 °C 30.03 in /  1016.8 hPa WSW 0.4 mph /  0.6 km/h 5.8 mph /  9.3 km/h 72 % 0.00 in /  0 mm
16:53 66.7 °F /  19.3 °C 57.4 °F /  14.1 °C 30.03 in /  1016.8 hPa SW 1.8 mph /  2.9 km/h 3.5 mph /  5.6 km/h 72 % 0.00 in /  0 mm
16:58 66.6 °F /  19.2 °C 57.3 °F /  14.1 °C 30.03 in /  1016.8 hPa SW 1.2 mph /  1.9 km/h 3.5 mph /  5.6 km/h 72 % 0.00 in /  0 mm
17:03 66.5 °F /  19.2 °C 57.2 °F /  14 °C 30.03 in /  1016.8 hPa WSW 1.7 mph /  2.7 km/h 3.5 mph /  5.6 km/h 72 % 0.00 in /  0 mm
17:08 66.3 °F /  19.1 °C 57.0 °F /  13.9 °C 30.03 in /  1016.8 hPa Calm   1.2 mph /  1.9 km/h 72 % 0.00 in /  0 mm
17:13 66.2 °F /  19 °C 57.3 °F /  14.1 °C 30.03 in /  1016.8 hPa SSW 0.5 mph /  0.8 km/h 3.5 mph /  5.6 km/h 73 % 0.00 in /  0 mm
17:18 66.0 °F /  18.9 °C 57.1 °F /  13.9 °C 30.03 in /  1016.8 hPa SSW 0.5 mph /  0.8 km/h 2.3 mph /  3.7 km/h 73 % 0.00 in /  0 mm
17:23 65.8 °F /  18.8 °C 56.9 °F /  13.8 °C 30.04 in /  1017.2 hPa South 1.7 mph /  2.7 km/h 3.5 mph /  5.6 km/h 73 % 0.00 in /  0 mm
17:28 65.4 °F /  18.6 °C 56.5 °F /  13.6 °C 30.04 in /  1017.2 hPa South 1.8 mph /  2.9 km/h 3.5 mph /  5.6 km/h 73 % 0.00 in /  0 mm
17:33 65.2 °F /  18.4 °C 56.3 °F /  13.5 °C 30.04 in /  1017.2 hPa South 0.3 mph /  0.5 km/h 3.5 mph /  5.6 km/h 73 % 0.00 in /  0 mm
17:38 64.9 °F /  18.3 °C 56.0 °F /  13.3 °C 30.05 in /  1017.5 hPa South 1.3 mph /  2.1 km/h 4.6 mph /  7.4 km/h 73 % 0.00 in /  0 mm
17:43 64.4 °F /  18 °C 55.9 °F /  13.3 °C 30.05 in /  1017.5 hPa SSW 0.6 mph /  1 km/h 3.5 mph /  5.6 km/h 74 % 0.00 in /  0 mm
17:48 64.1 °F /  17.8 °C 55.6 °F /  13.1 °C 30.05 in /  1017.5 hPa SSW 0.6 mph /  1 km/h 1.2 mph /  1.9 km/h 74 % 0.00 in /  0 mm
17:53 63.7 °F /  17.6 °C 55.6 °F /  13.1 °C 30.05 in /  1017.5 hPa SSW 1.7 mph /  2.7 km/h 4.0 mph /  6.4 km/h 75 % 0.00 in /  0 mm
17:58 63.4 °F /  17.4 °C 55.3 °F /  12.9 °C 30.05 in /  1017.5 hPa Calm   1.2 mph /  1.9 km/h 75 % 0.00 in /  0 mm
18:03 63.0 °F /  17.2 °C 55.3 °F /  12.9 °C 30.05 in /  1017.5 hPa SSW 0.1 mph /  0.2 km/h 3.5 mph /  5.6 km/h 76 % 0.00 in /  0 mm
18:08 62.7 °F /  17.1 °C 55.0 °F /  12.8 °C 30.05 in /  1017.5 hPa SSW 0.3 mph /  0.5 km/h 2.3 mph /  3.7 km/h 76 % 0.00 in /  0 mm
18:13 62.4 °F /  16.9 °C 55.1 °F /  12.8 °C 30.05 in /  1017.5 hPa SSW 0.5 mph /  0.8 km/h 3.5 mph /  5.6 km/h 77 % 0.00 in /  0 mm
18:18 62.2 °F /  16.8 °C 55.3 °F /  12.9 °C 30.05 in /  1017.5 hPa Calm   1.2 mph /  1.9 km/h 78 % 0.00 in /  0 mm
18:24 61.8 °F /  16.6 °C 54.9 °F /  12.7 °C 30.05 in /  1017.5 hPa Calm     78 % 0.00 in /  0 mm
18:29 61.6 °F /  16.4 °C 55.0 °F /  12.8 °C 30.05 in /  1017.5 hPa Calm   4.6 mph /  7.4 km/h 79 % 0.00 in /  0 mm
18:34 61.3 °F /  16.3 °C 54.7 °F /  12.6 °C 30.05 in /  1017.5 hPa SSW 0.3 mph /  0.5 km/h 1.2 mph /  1.9 km/h 79 % 0.00 in /  0 mm
18:39 61.1 °F /  16.2 °C 54.5 °F /  12.5 °C 30.05 in /  1017.5 hPa SSW 1.5 mph /  2.4 km/h 3.5 mph /  5.6 km/h 79 % 0.00 in /  0 mm
18:44 60.8 °F /  16 °C 54.6 °F /  12.6 °C 30.06 in /  1017.8 hPa SSW 0.2 mph /  0.3 km/h 2.3 mph /  3.7 km/h 80 % 0.00 in /  0 mm
18:49 60.5 °F /  15.8 °C 54.3 °F /  12.4 °C 30.06 in /  1017.8 hPa SSW 1.6 mph /  2.6 km/h 3.5 mph /  5.6 km/h 80 % 0.00 in /  0 mm
18:54 60.2 °F /  15.7 °C 54.3 °F /  12.4 °C 30.05 in /  1017.5 hPa SSW 1.4 mph /  2.3 km/h 3.5 mph /  5.6 km/h 81 % 0.00 in /  0 mm
18:59 59.9 °F /  15.5 °C 54.1 °F /  12.3 °C 30.06 in /  1017.8 hPa SSW 1.7 mph /  2.7 km/h 3.0 mph /  4.8 km/h 81 % 0.00 in /  0 mm
19:04 59.6 °F /  15.3 °C 54.1 °F /  12.3 °C 30.06 in /  1017.8 hPa SSW 1.8 mph /  2.9 km/h 3.5 mph /  5.6 km/h 82 % 0.00 in /  0 mm
19:09 59.3 °F /  15.2 °C 53.8 °F /  12.1 °C 30.05 in /  1017.5 hPa SSW 1.4 mph /  2.3 km/h 2.3 mph /  3.7 km/h 82 % 0.00 in /  0 mm
19:14 59.1 °F /  15.1 °C 53.9 °F /  12.2 °C 30.06 in /  1017.8 hPa SSW 0.9 mph /  1.4 km/h 3.5 mph /  5.6 km/h 83 % 0.00 in /  0 mm
19:19 58.7 °F /  14.8 °C 53.5 °F /  11.9 °C 30.06 in /  1017.8 hPa SSW 1.2 mph /  1.9 km/h 4.6 mph /  7.4 km/h 83 % 0.00 in /  0 mm
19:24 58.4 °F /  14.7 °C 53.6 °F /  12 °C 30.06 in /  1017.8 hPa South 1.9 mph /  3.1 km/h 5.0 mph /  8 km/h 84 % 0.00 in /  0 mm
19:29 58.1 °F /  14.5 °C 53.3 °F /  11.8 °C 30.06 in /  1017.8 hPa SSW 2.5 mph /  4 km/h 6.0 mph /  9.7 km/h 84 % 0.00 in /  0 mm
19:34 57.8 °F /  14.3 °C 53.0 °F /  11.7 °C 30.06 in /  1017.8 hPa South 1.9 mph /  3.1 km/h 3.5 mph /  5.6 km/h 84 % 0.00 in /  0 mm
19:39 57.5 °F /  14.2 °C 52.7 °F /  11.5 °C 30.06 in /  1017.8 hPa South 2.2 mph /  3.5 km/h 5.8 mph /  9.3 km/h 84 % 0.00 in /  0 mm
19:45 57.2 °F /  14 °C 52.7 °F /  11.5 °C 30.06 in /  1017.8 hPa SSW 1.0 mph /  1.6 km/h 4.6 mph /  7.4 km/h 85 % 0.00 in /  0 mm
19:50 57.0 °F /  13.9 °C 52.5 °F /  11.4 °C 30.06 in /  1017.8 hPa South 1.8 mph /  2.9 km/h 3.5 mph /  5.6 km/h 85 % 0.00 in /  0 mm
19:55 56.7 °F /  13.7 °C 52.6 °F /  11.4 °C 30.06 in /  1017.8 hPa South 2.6 mph /  4.2 km/h 4.0 mph /  6.4 km/h 86 % 0.00 in /  0 mm
20:00 56.5 °F /  13.6 °C 52.4 °F /  11.3 °C 30.06 in /  1017.8 hPa South 1.3 mph /  2.1 km/h 4.6 mph /  7.4 km/h 86 % 0.00 in /  0 mm
20:05 56.3 °F /  13.5 °C 52.2 °F /  11.2 °C 30.06 in /  1017.8 hPa SSW 3.5 mph /  5.6 km/h 5.0 mph /  8 km/h 86 % 0.00 in /  0 mm
20:10 56.0 °F /  13.3 °C 52.2 °F /  11.2 °C 30.06 in /  1017.8 hPa SSW 2.9 mph /  4.7 km/h 5.0 mph /  8 km/h 87 % 0.00 in /  0 mm
20:15 55.8 °F /  13.2 °C 52.0 °F /  11.1 °C 30.06 in /  1017.8 hPa SSW 1.7 mph /  2.7 km/h 3.5 mph /  5.6 km/h 87 % 0.00 in /  0 mm
20:20 55.6 °F /  13.1 °C 52.1 °F /  11.2 °C 30.06 in /  1017.8 hPa SSW 2.8 mph /  4.5 km/h 4.6 mph /  7.4 km/h 88 % 0.00 in /  0 mm
20:25 55.5 °F /  13.1 °C 52.0 °F /  11.1 °C 30.06 in /  1017.8 hPa SSW 2.4 mph /  3.9 km/h 3.5 mph /  5.6 km/h 88 % 0.00 in /  0 mm
20:30 55.4 °F /  13 °C 51.9 °F /  11.1 °C 30.06 in /  1017.8 hPa SSW 1.8 mph /  2.9 km/h 4.0 mph /  6.4 km/h 88 % 0.00 in /  0 mm
20:35 55.4 °F /  13 °C 51.9 °F /  11.1 °C 30.06 in /  1017.8 hPa South 0.4 mph /  0.6 km/h 2.0 mph /  3.2 km/h 88 % 0.00 in /  0 mm
20:40 55.3 °F /  12.9 °C 51.8 °F /  11 °C 30.06 in /  1017.8 hPa SSW 1.6 mph /  2.6 km/h 4.0 mph /  6.4 km/h 88 % 0.00 in /  0 mm
20:45 55.2 °F /  12.9 °C 51.7 °F /  10.9 °C 30.06 in /  1017.8 hPa SW 2.2 mph /  3.5 km/h 4.6 mph /  7.4 km/h 88 % 0.00 in /  0 mm
20:50 55.1 °F /  12.8 °C 51.6 °F /  10.9 °C 30.06 in /  1017.8 hPa SW 1.6 mph /  2.6 km/h 2.0 mph /  3.2 km/h 88 % 0.00 in /  0 mm
20:55 55.0 °F /  12.8 °C 51.8 °F /  11 °C 30.06 in /  1017.8 hPa SW 0.6 mph /  1 km/h 2.3 mph /  3.7 km/h 89 % 0.00 in /  0 mm
21:00 55.0 °F /  12.8 °C 51.8 °F /  11 °C 30.06 in /  1017.8 hPa Calm   1.2 mph /  1.9 km/h 89 % 0.00 in /  0 mm
21:05 55.0 °F /  12.8 °C 51.8 °F /  11 °C 30.07 in /  1018.2 hPa SW 1.0 mph /  1.6 km/h 1.0 mph /  1.6 km/h 89 % 0.00 in /  0 mm
21:11 54.9 °F /  12.7 °C 51.7 °F /  10.9 °C 30.06 in /  1017.8 hPa SW 1.0 mph /  1.6 km/h 4.0 mph /  6.4 km/h 89 % 0.00 in /  0 mm
21:16 54.9 °F /  12.7 °C 52.1 °F /  11.2 °C 30.07 in /  1018.2 hPa SSW 1.0 mph /  1.6 km/h 5.0 mph /  8 km/h 90 % 0.00 in /  0 mm
21:20 54.9 °F /  12.7 °C 52.0 °F /  11.1 °C 30.07 in /  1018.2 hPa SW 0.4 mph /  0.6 km/h 3.5 mph /  5.6 km/h 90 % 0.00 in /  0 mm
21:25 54.9 °F /  12.7 °C 52.0 °F /  11.1 °C 30.07 in /  1018.2 hPa Calm   4.0 mph /  6.4 km/h 90 % 0.00 in /  0 mm
21:30 54.9 °F /  12.7 °C 52.0 °F /  11.1 °C 30.07 in /  1018.2 hPa SW 1.0 mph /  1.6 km/h 5.0 mph /  8 km/h 90 % 0.00 in /  0 mm
21:35 54.9 °F /  12.7 °C 52.0 °F /  11.1 °C 30.07 in /  1018.2 hPa SW 0.4 mph /  0.6 km/h 2.3 mph /  3.7 km/h 90 % 0.00 in /  0 mm
21:41 54.9 °F /  12.7 °C 52.0 °F /  11.1 °C 30.07 in /  1018.2 hPa SW 2.0 mph /  3.2 km/h 5.0 mph /  8 km/h 90 % 0.00 in /  0 mm
21:46 54.8 °F /  12.7 °C 51.9 °F /  11.1 °C 30.07 in /  1018.2 hPa SW 2.0 mph /  3.2 km/h 5.0 mph /  8 km/h 90 % 0.00 in /  0 mm
21:51 54.8 °F /  12.7 °C 51.9 °F /  11.1 °C 30.07 in /  1018.2 hPa SW 1.0 mph /  1.6 km/h 4.0 mph /  6.4 km/h 90 % 0.00 in /  0 mm
21:56 54.8 °F /  12.7 °C 51.9 °F /  11.1 °C 30.07 in /  1018.2 hPa Calm   3.0 mph /  4.8 km/h 90 % 0.00 in /  0 mm
22:01 54.8 °F /  12.7 °C 52.2 °F /  11.2 °C 30.07 in /  1018.2 hPa South 2.3 mph /  3.7 km/h 3.5 mph /  5.6 km/h 91 % 0.00 in /  0 mm
22:06 54.8 °F /  12.7 °C 52.2 °F /  11.2 °C 30.07 in /  1018.2 hPa SW 1.1 mph /  1.8 km/h 6.9 mph /  11.1 km/h 91 % 0.00 in /  0 mm
22:11 54.8 °F /  12.7 °C 52.2 °F /  11.2 °C 30.07 in /  1018.2 hPa SSW 1.2 mph /  1.9 km/h 5.8 mph /  9.3 km/h 91 % 0.00 in /  0 mm
22:16 54.8 °F /  12.7 °C 52.2 °F /  11.2 °C 30.07 in /  1018.2 hPa SW 0.5 mph /  0.8 km/h 3.5 mph /  5.6 km/h 91 % 0.00 in /  0 mm
22:21 54.8 °F /  12.7 °C 52.2 °F /  11.2 °C 30.07 in /  1018.2 hPa South 3.9 mph /  6.3 km/h 8.1 mph /  13 km/h 91 % 0.00 in /  0 mm
22:26 54.8 °F /  12.7 °C 52.2 °F /  11.2 °C 30.07 in /  1018.2 hPa South 3.4 mph /  5.5 km/h 8.1 mph /  13 km/h 91 % 0.00 in /  0 mm
22:31 54.8 °F /  12.7 °C 52.2 °F /  11.2 °C 30.07 in /  1018.2 hPa SSW 1.8 mph /  2.9 km/h 4.0 mph /  6.4 km/h 91 % 0.00 in /  0 mm
22:36 54.8 °F /  12.7 °C 52.2 °F /  11.2 °C 30.06 in /  1017.8 hPa SW 3.8 mph /  6.1 km/h 6.9 mph /  11.1 km/h 91 % 0.00 in /  0 mm
22:41 54.8 °F /  12.7 °C 52.2 °F /  11.2 °C 30.06 in /  1017.8 hPa SW 1.1 mph /  1.8 km/h 3.5 mph /  5.6 km/h 91 % 0.00 in /  0 mm
22:46 54.8 °F /  12.7 °C 52.2 °F /  11.2 °C 30.06 in /  1017.8 hPa SW 1.7 mph /  2.7 km/h 3.5 mph /  5.6 km/h 91 % 0.00 in /  0 mm
22:51 54.8 °F /  12.7 °C 52.5 °F /  11.4 °C 30.06 in /  1017.8 hPa South 3.6 mph /  5.8 km/h 5.8 mph /  9.3 km/h 92 % 0.00 in /  0 mm
22:56 54.8 °F /  12.7 °C 52.5 °F /  11.4 °C 30.07 in /  1018.2 hPa South 1.8 mph /  2.9 km/h 3.5 mph /  5.6 km/h 92 % 0.00 in /  0 mm
23:01 54.9 °F /  12.7 °C 52.6 °F /  11.4 °C 30.06 in /  1017.8 hPa SSW 1.5 mph /  2.4 km/h 5.0 mph /  8 km/h 92 % 0.00 in /  0 mm
23:06 54.9 °F /  12.7 °C 52.6 °F /  11.4 °C 30.07 in /  1018.2 hPa SSW 3.7 mph /  6 km/h 8.1 mph /  13 km/h 92 % 0.00 in /  0 mm
23:11 55.0 °F /  12.8 °C 52.7 °F /  11.5 °C 30.06 in /  1017.8 hPa SSW 4.8 mph /  7.7 km/h 7.0 mph /  11.3 km/h 92 % 0.00 in /  0 mm
23:16 55.0 °F /  12.8 °C 53.0 °F /  11.7 °C 30.07 in /  1018.2 hPa SSW 3.6 mph /  5.8 km/h 6.9 mph /  11.1 km/h 93 % 0.00 in /  0 mm
23:21 55.1 °F /  12.8 °C 53.1 °F /  11.7 °C 30.07 in /  1018.2 hPa WSW 3.7 mph /  6 km/h 5.8 mph /  9.3 km/h 93 % 0.00 in /  0 mm
23:26 55.1 °F /  12.8 °C 53.1 °F /  11.7 °C 30.06 in /  1017.8 hPa SSW 1.5 mph /  2.4 km/h 3.5 mph /  5.6 km/h 93 % 0.00 in /  0 mm
23:32 55.0 °F /  12.8 °C 53.0 °F /  11.7 °C 30.07 in /  1018.2 hPa SW 2.5 mph /  4 km/h 6.9 mph /  11.1 km/h 93 % 0.00 in /  0 mm
23:37 54.9 °F /  12.7 °C 52.9 °F /  11.6 °C 30.07 in /  1018.2 hPa SW 4.1 mph /  6.6 km/h 6.9 mph /  11.1 km/h 93 % 0.00 in /  0 mm
23:42 54.8 °F /  12.7 °C 52.5 °F /  11.4 °C 30.07 in /  1018.2 hPa SW 4.3 mph /  6.9 km/h 8.0 mph /  12.9 km/h 92 % 0.00 in /  0 mm
23:47 54.6 °F /  12.6 °C 52.3 °F /  11.3 °C 30.08 in /  1018.5 hPa South 3.3 mph /  5.3 km/h 4.6 mph /  7.4 km/h 92 % 0.00 in /  0 mm
23:52 54.5 °F /  12.5 °C 52.5 °F /  11.4 °C 30.07 in /  1018.2 hPa WSW 2.0 mph /  3.2 km/h 3.5 mph /  5.6 km/h 93 % 0.00 in /  0 mm
23:57 54.4 °F /  12.4 °C 52.4 °F /  11.3 °C 30.07 in /  1018.2 hPa SSW 2.9 mph /  4.7 km/h 5.8 mph /  9.3 km/h 93 % 0.00 in /  0 mm
Crab Meadow Weather
Compliments of Weather Underground - 3 mb

Script developed by  Jim McMurry - jmcmurry@mwt.net Adapted for the template by  Wim van der Kuil - Leuven-Template.eu

Weather Terms: Warning - A warning is issued when a hazardous weather or hydrologic event is occurring, imminent or likely. A warning means weather conditions pose a threat to life or property. People in the path of the storm need to take protective action.